sensor_id;sensor_type;location;lat;lon;timestamp;temperature;humidity
65291;SHT30;51893;59.754;10.110;2024-02-21T00:00:38;2.18;86.52
65291;SHT30;51893;59.754;10.110;2024-02-21T00:03:27;2.25;86.58
65291;SHT30;51893;59.754;10.110;2024-02-21T00:05:55;2.29;86.44
65291;SHT30;51893;59.754;10.110;2024-02-21T00:08:24;2.28;86.41
65291;SHT30;51893;59.754;10.110;2024-02-21T00:10:52;2.35;86.38
65291;SHT30;51893;59.754;10.110;2024-02-21T00:13:22;2.34;86.30
65291;SHT30;51893;59.754;10.110;2024-02-21T00:15:50;2.35;86.31
65291;SHT30;51893;59.754;10.110;2024-02-21T00:18:19;2.37;86.30
65291;SHT30;51893;59.754;10.110;2024-02-21T00:20:47;2.47;86.27
65291;SHT30;51893;59.754;10.110;2024-02-21T00:23:15;2.54;86.04
65291;SHT30;51893;59.754;10.110;2024-02-21T00:25:43;2.53;85.85
65291;SHT30;51893;59.754;10.110;2024-02-21T00:28:12;2.57;85.85
65291;SHT30;51893;59.754;10.110;2024-02-21T00:30:40;2.66;85.72
65291;SHT30;51893;59.754;10.110;2024-02-21T00:33:09;2.62;85.53
65291;SHT30;51893;59.754;10.110;2024-02-21T00:35:38;2.57;85.50
65291;SHT30;51893;59.754;10.110;2024-02-21T00:38:06;2.49;85.60
65291;SHT30;51893;59.754;10.110;2024-02-21T00:40:35;2.43;85.70
65291;SHT30;51893;59.754;10.110;2024-02-21T00:43:03;2.33;85.82
65291;SHT30;51893;59.754;10.110;2024-02-21T00:45:31;2.29;86.03
65291;SHT30;51893;59.754;10.110;2024-02-21T00:47:59;2.31;86.13
65291;SHT30;51893;59.754;10.110;2024-02-21T00:50:27;2.30;86.10
65291;SHT30;51893;59.754;10.110;2024-02-21T00:52:55;2.25;86.22
65291;SHT30;51893;59.754;10.110;2024-02-21T00:55:23;2.17;86.38
65291;SHT30;51893;59.754;10.110;2024-02-21T00:57:51;2.15;86.57
65291;SHT30;51893;59.754;10.110;2024-02-21T01:00:19;2.10;86.64
65291;SHT30;51893;59.754;10.110;2024-02-21T01:02:47;1.97;86.91
65291;SHT30;51893;59.754;10.110;2024-02-21T01:05:20;1.93;87.14
65291;SHT30;51893;59.754;10.110;2024-02-21T01:07:48;1.91;87.29
65291;SHT30;51893;59.754;10.110;2024-02-21T01:10:17;1.86;87.49
65291;SHT30;51893;59.754;10.110;2024-02-21T01:12:45;1.82;87.68
65291;SHT30;51893;59.754;10.110;2024-02-21T01:15:13;1.84;87.81
65291;SHT30;51893;59.754;10.110;2024-02-21T01:17:41;1.90;87.82
65291;SHT30;51893;59.754;10.110;2024-02-21T01:20:10;1.92;87.80
65291;SHT30;51893;59.754;10.110;2024-02-21T01:22:38;1.91;87.80
65291;SHT30;51893;59.754;10.110;2024-02-21T01:25:07;1.88;87.80
65291;SHT30;51893;59.754;10.110;2024-02-21T01:27:35;1.88;87.86
65291;SHT30;51893;59.754;10.110;2024-02-21T01:30:04;1.96;87.95
65291;SHT30;51893;59.754;10.110;2024-02-21T01:32:33;2.04;87.88
65291;SHT30;51893;59.754;10.110;2024-02-21T01:35:01;2.11;87.81
65291;SHT30;51893;59.754;10.110;2024-02-21T01:37:31;2.25;87.77
65291;SHT30;51893;59.754;10.110;2024-02-21T01:39:59;2.20;87.46
65291;SHT30;51893;59.754;10.110;2024-02-21T01:42:27;2.06;87.46
65291;SHT30;51893;59.754;10.110;2024-02-21T01:44:55;1.97;87.60
65291;SHT30;51893;59.754;10.110;2024-02-21T01:47:24;1.95;87.75
65291;SHT30;51893;59.754;10.110;2024-02-21T01:49:55;1.98;87.90
65291;SHT30;51893;59.754;10.110;2024-02-21T01:52:23;1.99;87.92
65291;SHT30;51893;59.754;10.110;2024-02-21T01:54:52;2.01;87.89
65291;SHT30;51893;59.754;10.110;2024-02-21T01:57:20;1.96;87.85
65291;SHT30;51893;59.754;10.110;2024-02-21T01:59:52;1.89;87.90
65291;SHT30;51893;59.754;10.110;2024-02-21T02:02:21;1.88;88.00
65291;SHT30;51893;59.754;10.110;2024-02-21T02:04:49;1.90;88.04
65291;SHT30;51893;59.754;10.110;2024-02-21T02:07:19;1.97;88.06
65291;SHT30;51893;59.754;10.110;2024-02-21T02:09:48;1.95;88.00
65291;SHT30;51893;59.754;10.110;2024-02-21T02:12:17;1.96;87.98
65291;SHT30;51893;59.754;10.110;2024-02-21T02:14:46;2.02;88.00
65291;SHT30;51893;59.754;10.110;2024-02-21T02:17:14;2.05;87.98
65291;SHT30;51893;59.754;10.110;2024-02-21T02:19:44;2.06;87.92
65291;SHT30;51893;59.754;10.110;2024-02-21T02:22:14;2.05;87.88
65291;SHT30;51893;59.754;10.110;2024-02-21T02:24:50;2.04;87.80
65291;SHT30;51893;59.754;10.110;2024-02-21T02:27:19;2.07;87.80
65291;SHT30;51893;59.754;10.110;2024-02-21T02:29:47;2.14;87.77
65291;SHT30;51893;59.754;10.110;2024-02-21T02:32:16;2.19;87.65
65291;SHT30;51893;59.754;10.110;2024-02-21T02:34:44;2.21;87.55
65291;SHT30;51893;59.754;10.110;2024-02-21T02:37:12;2.20;87.49
65291;SHT30;51893;59.754;10.110;2024-02-21T02:39:40;2.14;87.46
65291;SHT30;51893;59.754;10.110;2024-02-21T02:42:10;2.10;87.59
65291;SHT30;51893;59.754;10.110;2024-02-21T02:44:39;2.08;87.68
65291;SHT30;51893;59.754;10.110;2024-02-21T02:47:06;2.00;87.71
65291;SHT30;51893;59.754;10.110;2024-02-21T02:49:36;1.91;87.83
65291;SHT30;51893;59.754;10.110;2024-02-21T02:52:05;1.87;87.94
65291;SHT30;51893;59.754;10.110;2024-02-21T02:54:33;1.87;88.07
65291;SHT30;51893;59.754;10.110;2024-02-21T02:57:01;1.79;88.11
65291;SHT30;51893;59.754;10.110;2024-02-21T02:59:31;1.75;88.24
65291;SHT30;51893;59.754;10.110;2024-02-21T03:02:00;1.75;88.30
65291;SHT30;51893;59.754;10.110;2024-02-21T03:04:28;1.77;88.40
65291;SHT30;51893;59.754;10.110;2024-02-21T03:06:57;1.78;88.36
65291;SHT30;51893;59.754;10.110;2024-02-21T03:09:26;1.76;88.34
65291;SHT30;51893;59.754;10.110;2024-02-21T03:11:53;1.75;88.40
65291;SHT30;51893;59.754;10.110;2024-02-21T03:14:24;1.74;88.40
65291;SHT30;51893;59.754;10.110;2024-02-21T03:16:52;1.74;88.40
65291;SHT30;51893;59.754;10.110;2024-02-21T03:19:21;1.78;88.42
65291;SHT30;51893;59.754;10.110;2024-02-21T03:21:50;1.84;88.38
65291;SHT30;51893;59.754;10.110;2024-02-21T03:24:20;1.86;88.28
65291;SHT30;51893;59.754;10.110;2024-02-21T03:26:49;1.85;88.18
65291;SHT30;51893;59.754;10.110;2024-02-21T03:29:18;1.82;88.10
65291;SHT30;51893;59.754;10.110;2024-02-21T03:31:46;1.74;88.16
65291;SHT30;51893;59.754;10.110;2024-02-21T03:34:14;1.69;88.26
65291;SHT30;51893;59.754;10.110;2024-02-21T03:36:42;1.68;88.33
65291;SHT30;51893;59.754;10.110;2024-02-21T03:39:10;1.64;88.43
65291;SHT30;51893;59.754;10.110;2024-02-21T03:41:38;1.62;88.51
65291;SHT30;51893;59.754;10.110;2024-02-21T03:44:07;1.56;88.56
65291;SHT30;51893;59.754;10.110;2024-02-21T03:46:34;1.51;88.62
65291;SHT30;51893;59.754;10.110;2024-02-21T03:49:03;1.52;88.70
65291;SHT30;51893;59.754;10.110;2024-02-21T03:51:31;1.59;88.75
65291;SHT30;51893;59.754;10.110;2024-02-21T03:53:59;1.69;88.71
65291;SHT30;51893;59.754;10.110;2024-02-21T03:56:27;1.75;88.58
65291;SHT30;51893;59.754;10.110;2024-02-21T03:58:55;1.76;88.47
65291;SHT30;51893;59.754;10.110;2024-02-21T04:01:24;1.72;88.46
65291;SHT30;51893;59.754;10.110;2024-02-21T04:03:52;1.67;88.50
65291;SHT30;51893;59.754;10.110;2024-02-21T04:06:20;1.66;88.60
65291;SHT30;51893;59.754;10.110;2024-02-21T04:08:48;1.66;88.56
65291;SHT30;51893;59.754;10.110;2024-02-21T04:11:19;1.63;88.50
65291;SHT30;51893;59.754;10.110;2024-02-21T04:13:47;1.60;88.44
65291;SHT30;51893;59.754;10.110;2024-02-21T04:16:19;1.55;88.40
65291;SHT30;51893;59.754;10.110;2024-02-21T04:18:47;1.55;88.41
65291;SHT30;51893;59.754;10.110;2024-02-21T04:21:16;1.56;88.40
65291;SHT30;51893;59.754;10.110;2024-02-21T04:23:45;1.54;88.34
65291;SHT30;51893;59.754;10.110;2024-02-21T04:26:13;1.52;88.34
65291;SHT30;51893;59.754;10.110;2024-02-21T04:28:44;1.53;88.34
65291;SHT30;51893;59.754;10.110;2024-02-21T04:31:13;1.51;88.30
65291;SHT30;51893;59.754;10.110;2024-02-21T04:33:42;1.50;88.33
65291;SHT30;51893;59.754;10.110;2024-02-21T04:36:10;1.50;88.30
65291;SHT30;51893;59.754;10.110;2024-02-21T04:38:39;1.48;88.30
65291;SHT30;51893;59.754;10.110;2024-02-21T04:41:08;1.43;88.37
65291;SHT30;51893;59.754;10.110;2024-02-21T04:43:36;1.42;88.40
65291;SHT30;51893;59.754;10.110;2024-02-21T04:46:04;1.39;88.43
65291;SHT30;51893;59.754;10.110;2024-02-21T04:48:32;1.34;88.44
65291;SHT30;51893;59.754;10.110;2024-02-21T04:51:01;1.27;88.65
65291;SHT30;51893;59.754;10.110;2024-02-21T04:53:29;1.24;88.85
65291;SHT30;51893;59.754;10.110;2024-02-21T04:55:57;1.22;88.95
65291;SHT30;51893;59.754;10.110;2024-02-21T04:58:25;1.21;89.07
65291;SHT30;51893;59.754;10.110;2024-02-21T05:00:53;1.18;89.18
65291;SHT30;51893;59.754;10.110;2024-02-21T05:03:23;1.14;89.31
65291;SHT30;51893;59.754;10.110;2024-02-21T05:05:52;1.11;89.39
65291;SHT30;51893;59.754;10.110;2024-02-21T05:08:20;1.05;89.64
65291;SHT30;51893;59.754;10.110;2024-02-21T05:10:48;1.02;89.85
65291;SHT30;51893;59.754;10.110;2024-02-21T05:13:16;1.03;89.94
65291;SHT30;51893;59.754;10.110;2024-02-21T05:15:45;1.03;90.00
65291;SHT30;51893;59.754;10.110;2024-02-21T05:18:13;1.03;90.00
65291;SHT30;51893;59.754;10.110;2024-02-21T05:20:41;1.02;90.10
65291;SHT30;51893;59.754;10.110;2024-02-21T05:23:10;1.02;90.10
65291;SHT30;51893;59.754;10.110;2024-02-21T05:25:38;1.01;90.09
65291;SHT30;51893;59.754;10.110;2024-02-21T05:28:06;1.05;90.15
65291;SHT30;51893;59.754;10.110;2024-02-21T05:30:37;1.07;90.10
65291;SHT30;51893;59.754;10.110;2024-02-21T05:33:05;1.06;90.01
65291;SHT30;51893;59.754;10.110;2024-02-21T05:35:35;1.05;89.98
65291;SHT30;51893;59.754;10.110;2024-02-21T05:38:04;1.07;89.92
65291;SHT30;51893;59.754;10.110;2024-02-21T05:40:35;1.07;89.88
65291;SHT30;51893;59.754;10.110;2024-02-21T05:43:03;1.03;89.84
65291;SHT30;51893;59.754;10.110;2024-02-21T05:45:31;1.01;89.89
65291;SHT30;51893;59.754;10.110;2024-02-21T05:47:59;1.01;89.89
65291;SHT30;51893;59.754;10.110;2024-02-21T05:50:28;1.04;89.89
65291;SHT30;51893;59.754;10.110;2024-02-21T05:52:56;1.06;89.89
65291;SHT30;51893;59.754;10.110;2024-02-21T05:55:24;1.11;89.87
65291;SHT30;51893;59.754;10.110;2024-02-21T05:57:53;1.11;89.74
65291;SHT30;51893;59.754;10.110;2024-02-21T06:00:23;1.08;89.70
65291;SHT30;51893;59.754;10.110;2024-02-21T06:02:51;1.01;89.69
65291;SHT30;51893;59.754;10.110;2024-02-21T06:05:19;0.95;89.79
65291;SHT30;51893;59.754;10.110;2024-02-21T06:07:48;0.95;89.86
65291;SHT30;51893;59.754;10.110;2024-02-21T06:10:17;0.95;89.88
65291;SHT30;51893;59.754;10.110;2024-02-21T06:12:45;0.96;89.89
65291;SHT30;51893;59.754;10.110;2024-02-21T06:15:13;0.99;89.90
65291;SHT30;51893;59.754;10.110;2024-02-21T06:17:41;1.03;89.90
65291;SHT30;51893;59.754;10.110;2024-02-21T06:20:09;1.05;89.79
65291;SHT30;51893;59.754;10.110;2024-02-21T06:22:38;1.00;89.69
65291;SHT30;51893;59.754;10.110;2024-02-21T06:25:06;0.99;89.70
65291;SHT30;51893;59.754;10.110;2024-02-21T06:27:37;0.99;89.77
65291;SHT30;51893;59.754;10.110;2024-02-21T06:30:05;1.04;89.80
65291;SHT30;51893;59.754;10.110;2024-02-21T06:32:34;1.04;89.76
65291;SHT30;51893;59.754;10.110;2024-02-21T06:35:02;0.97;89.72
65291;SHT30;51893;59.754;10.110;2024-02-21T06:37:31;0.95;89.80
65291;SHT30;51893;59.754;10.110;2024-02-21T06:40:00;0.95;89.83
65291;SHT30;51893;59.754;10.110;2024-02-21T06:42:28;0.95;89.85
65291;SHT30;51893;59.754;10.110;2024-02-21T06:44:57;0.96;89.88
65291;SHT30;51893;59.754;10.110;2024-02-21T06:47:25;1.01;89.89
65291;SHT30;51893;59.754;10.110;2024-02-21T06:49:53;1.02;89.87
65291;SHT30;51893;59.754;10.110;2024-02-21T06:52:21;1.04;89.80
65291;SHT30;51893;59.754;10.110;2024-02-21T06:54:50;1.01;89.71
65291;SHT30;51893;59.754;10.110;2024-02-21T06:57:19;1.00;89.70
65291;SHT30;51893;59.754;10.110;2024-02-21T06:59:47;0.99;89.68
65291;SHT30;51893;59.754;10.110;2024-02-21T07:02:14;1.00;89.68
65291;SHT30;51893;59.754;10.110;2024-02-21T07:04:43;1.04;89.70
65291;SHT30;51893;59.754;10.110;2024-02-21T07:07:11;1.12;89.71
65291;SHT30;51893;59.754;10.110;2024-02-21T07:09:40;1.21;89.62
65291;SHT30;51893;59.754;10.110;2024-02-21T07:12:08;1.27;89.56
65291;SHT30;51893;59.754;10.110;2024-02-21T07:14:38;1.27;89.44
65291;SHT30;51893;59.754;10.110;2024-02-21T07:17:07;1.30;89.40
65291;SHT30;51893;59.754;10.110;2024-02-21T07:19:35;1.33;89.27
65291;SHT30;51893;59.754;10.110;2024-02-21T07:22:03;1.31;89.17
65291;SHT30;51893;59.754;10.110;2024-02-21T07:24:31;1.30;89.10
65291;SHT30;51893;59.754;10.110;2024-02-21T07:27:00;1.34;89.09
65291;SHT30;51893;59.754;10.110;2024-02-21T07:29:34;1.28;88.92
65291;SHT30;51893;59.754;10.110;2024-02-21T07:32:02;1.25;88.92
65291;SHT30;51893;59.754;10.110;2024-02-21T07:34:31;1.23;88.90
65291;SHT30;51893;59.754;10.110;2024-02-21T07:37:01;1.18;88.83
65291;SHT30;51893;59.754;10.110;2024-02-21T07:39:35;1.08;88.83
65291;SHT30;51893;59.754;10.110;2024-02-21T07:42:05;1.05;88.90
65291;SHT30;51893;59.754;10.110;2024-02-21T07:44:33;1.02;89.03
65291;SHT30;51893;59.754;10.110;2024-02-21T07:47:02;0.99;89.07
65291;SHT30;51893;59.754;10.110;2024-02-21T07:49:30;1.02;89.15
65291;SHT30;51893;59.754;10.110;2024-02-21T07:52:00;1.04;89.19
65291;SHT30;51893;59.754;10.110;2024-02-21T07:54:28;1.06;89.14
65291;SHT30;51893;59.754;10.110;2024-02-21T07:56:56;1.04;89.01
65291;SHT30;51893;59.754;10.110;2024-02-21T07:59:24;1.03;88.99
65291;SHT30;51893;59.754;10.110;2024-02-21T08:01:56;1.10;89.05
65291;SHT30;51893;59.754;10.110;2024-02-21T08:04:26;1.10;88.92
65291;SHT30;51893;59.754;10.110;2024-02-21T08:06:54;1.10;88.86
65291;SHT30;51893;59.754;10.110;2024-02-21T08:09:23;1.11;88.88
65291;SHT30;51893;59.754;10.110;2024-02-21T08:11:51;1.11;88.83
65291;SHT30;51893;59.754;10.110;2024-02-21T08:14:20;1.14;88.85
65291;SHT30;51893;59.754;10.110;2024-02-21T08:16:48;1.11;88.79
65291;SHT30;51893;59.754;10.110;2024-02-21T08:19:17;1.13;88.77
65291;SHT30;51893;59.754;10.110;2024-02-21T08:21:45;1.20;88.82
65291;SHT30;51893;59.754;10.110;2024-02-21T08:24:16;1.22;88.65
65291;SHT30;51893;59.754;10.110;2024-02-21T08:26:44;1.27;88.64
65291;SHT30;51893;59.754;10.110;2024-02-21T08:29:12;1.33;88.53
65291;SHT30;51893;59.754;10.110;2024-02-21T08:31:41;1.37;88.49
65291;SHT30;51893;59.754;10.110;2024-02-21T08:34:11;1.43;88.40
65291;SHT30;51893;59.754;10.110;2024-02-21T08:36:42;1.47;88.27
65291;SHT30;51893;59.754;10.110;2024-02-21T08:39:10;1.48;88.20
65291;SHT30;51893;59.754;10.110;2024-02-21T08:41:39;1.51;88.09
65291;SHT30;51893;59.754;10.110;2024-02-21T08:44:23;1.51;88.04
65291;SHT30;51893;59.754;10.110;2024-02-21T08:46:54;1.46;87.83
65291;SHT30;51893;59.754;10.110;2024-02-21T08:49:24;1.39;87.76
65291;SHT30;51893;59.754;10.110;2024-02-21T08:52:03;1.28;87.65
65291;SHT30;51893;59.754;10.110;2024-02-21T08:54:32;1.16;87.69
65291;SHT30;51893;59.754;10.110;2024-02-21T08:57:02;1.07;87.83
65291;SHT30;51893;59.754;10.110;2024-02-21T08:59:31;1.09;88.06
65291;SHT30;51893;59.754;10.110;2024-02-21T09:02:00;1.13;88.20
65291;SHT30;51893;59.754;10.110;2024-02-21T09:04:28;1.15;88.15
65291;SHT30;51893;59.754;10.110;2024-02-21T09:06:56;1.15;88.17
65291;SHT30;51893;59.754;10.110;2024-02-21T09:09:25;1.17;88.18
65291;SHT30;51893;59.754;10.110;2024-02-21T09:11:56;1.21;88.16
65291;SHT30;51893;59.754;10.110;2024-02-21T09:14:25;1.28;88.14
65291;SHT30;51893;59.754;10.110;2024-02-21T09:16:53;1.26;88.00
65291;SHT30;51893;59.754;10.110;2024-02-21T09:19:23;1.27;88.08
65291;SHT30;51893;59.754;10.110;2024-02-21T09:21:51;1.33;88.10
65291;SHT30;51893;59.754;10.110;2024-02-21T09:24:20;1.38;87.95
65291;SHT30;51893;59.754;10.110;2024-02-21T09:26:47;1.44;87.92
65291;SHT30;51893;59.754;10.110;2024-02-21T09:29:16;1.46;87.75
65291;SHT30;51893;59.754;10.110;2024-02-21T09:31:44;1.47;87.72
65291;SHT30;51893;59.754;10.110;2024-02-21T09:34:13;1.47;87.70
65291;SHT30;51893;59.754;10.110;2024-02-21T09:36:41;1.49;87.67
65291;SHT30;51893;59.754;10.110;2024-02-21T09:39:09;1.54;87.61
65291;SHT30;51893;59.754;10.110;2024-02-21T09:41:43;1.57;87.54
65291;SHT30;51893;59.754;10.110;2024-02-21T09:44:23;1.57;87.47
65291;SHT30;51893;59.754;10.110;2024-02-21T09:46:52;1.53;87.45
65291;SHT30;51893;59.754;10.110;2024-02-21T09:49:31;1.49;87.45
65291;SHT30;51893;59.754;10.110;2024-02-21T09:52:07;1.46;87.49
65291;SHT30;51893;59.754;10.110;2024-02-21T09:54:36;1.48;87.54
65291;SHT30;51893;59.754;10.110;2024-02-21T09:57:05;1.53;87.66
65291;SHT30;51893;59.754;10.110;2024-02-21T09:59:33;1.59;87.65
65291;SHT30;51893;59.754;10.110;2024-02-21T10:02:01;1.62;87.60
65291;SHT30;51893;59.754;10.110;2024-02-21T10:04:30;1.62;87.51
65291;SHT30;51893;59.754;10.110;2024-02-21T10:06:59;1.64;87.48
65291;SHT30;51893;59.754;10.110;2024-02-21T10:09:28;1.66;87.43
65291;SHT30;51893;59.754;10.110;2024-02-21T10:12:07;1.65;87.35
65291;SHT30;51893;59.754;10.110;2024-02-21T10:14:41;1.67;87.40
65291;SHT30;51893;59.754;10.110;2024-02-21T10:17:15;1.71;87.36
65291;SHT30;51893;59.754;10.110;2024-02-21T10:19:46;1.74;87.30
65291;SHT30;51893;59.754;10.110;2024-02-21T10:22:15;1.76;87.30
65291;SHT30;51893;59.754;10.110;2024-02-21T10:24:46;1.79;87.29
65291;SHT30;51893;59.754;10.110;2024-02-21T10:27:14;1.81;87.15
65291;SHT30;51893;59.754;10.110;2024-02-21T10:29:42;1.81;87.17
65291;SHT30;51893;59.754;10.110;2024-02-21T10:32:19;1.80;87.04
65291;SHT30;51893;59.754;10.110;2024-02-21T10:34:47;1.78;87.13
65291;SHT30;51893;59.754;10.110;2024-02-21T10:37:19;1.86;87.21
65291;SHT30;51893;59.754;10.110;2024-02-21T10:39:48;1.95;87.22
65291;SHT30;51893;59.754;10.110;2024-02-21T10:42:17;2.01;87.07
65291;SHT30;51893;59.754;10.110;2024-02-21T10:44:50;2.02;86.95
65291;SHT30;51893;59.754;10.110;2024-02-21T10:47:20;2.00;86.85
65291;SHT30;51893;59.754;10.110;2024-02-21T10:49:56;1.97;86.89
65291;SHT30;51893;59.754;10.110;2024-02-21T10:52:36;1.97;86.83
65291;SHT30;51893;59.754;10.110;2024-02-21T10:55:20;1.89;86.82
65291;SHT30;51893;59.754;10.110;2024-02-21T10:57:56;1.85;87.03
65291;SHT30;51893;59.754;10.110;2024-02-21T11:00:28;1.87;87.12
65291;SHT30;51893;59.754;10.110;2024-02-21T11:02:58;1.90;87.10
65291;SHT30;51893;59.754;10.110;2024-02-21T11:05:28;1.94;87.08
65291;SHT30;51893;59.754;10.110;2024-02-21T11:07:58;1.94;87.06
65291;SHT30;51893;59.754;10.110;2024-02-21T11:10:26;1.93;87.08
65291;SHT30;51893;59.754;10.110;2024-02-21T11:13:08;1.99;87.12
65291;SHT30;51893;59.754;10.110;2024-02-21T11:15:37;2.02;87.03
65291;SHT30;51893;59.754;10.110;2024-02-21T11:18:05;2.02;86.98
65291;SHT30;51893;59.754;10.110;2024-02-21T11:20:37;2.06;86.99
65291;SHT30;51893;59.754;10.110;2024-02-21T11:23:06;2.08;86.98
65291;SHT30;51893;59.754;10.110;2024-02-21T11:25:34;2.12;86.93
65291;SHT30;51893;59.754;10.110;2024-02-21T11:28:03;2.14;86.85
65291;SHT30;51893;59.754;10.110;2024-02-21T11:30:35;2.08;86.76
65291;SHT30;51893;59.754;10.110;2024-02-21T11:33:06;2.10;86.83
65291;SHT30;51893;59.754;10.110;2024-02-21T11:35:36;2.18;86.92
65291;SHT30;51893;59.754;10.110;2024-02-21T11:38:10;2.33;86.89
65291;SHT30;51893;59.754;10.110;2024-02-21T11:40:46;2.56;86.78
65291;SHT30;51893;59.754;10.110;2024-02-21T11:43:15;2.96;86.57
65291;SHT30;51893;59.754;10.110;2024-02-21T11:45:45;3.13;85.74
65291;SHT30;51893;59.754;10.110;2024-02-21T11:48:13;3.40;85.46
65291;SHT30;51893;59.754;10.110;2024-02-21T11:50:42;3.58;84.65
65291;SHT30;51893;59.754;10.110;2024-02-21T11:53:10;3.51;83.97
65291;SHT30;51893;59.754;10.110;2024-02-21T11:55:39;3.42;83.88
65291;SHT30;51893;59.754;10.110;2024-02-21T11:58:07;3.37;83.97
65291;SHT30;51893;59.754;10.110;2024-02-21T12:00:37;3.47;84.20
65291;SHT30;51893;59.754;10.110;2024-02-21T12:03:05;3.62;84.01
65291;SHT30;51893;59.754;10.110;2024-02-21T12:05:34;3.66;83.61
65291;SHT30;51893;59.754;10.110;2024-02-21T12:08:03;3.75;83.60
65291;SHT30;51893;59.754;10.110;2024-02-21T12:10:32;3.85;83.33
65291;SHT30;51893;59.754;10.110;2024-02-21T12:13:10;3.90;83.17
65291;SHT30;51893;59.754;10.110;2024-02-21T12:15:39;3.89;82.91
65291;SHT30;51893;59.754;10.110;2024-02-21T12:18:09;3.78;82.53
65291;SHT30;51893;59.754;10.110;2024-02-21T12:20:39;3.59;82.29
65291;SHT30;51893;59.754;10.110;2024-02-21T12:23:10;3.34;82.45
65291;SHT30;51893;59.754;10.110;2024-02-21T12:25:38;3.24;82.92
65291;SHT30;51893;59.754;10.110;2024-02-21T12:28:08;3.23;83.15
65291;SHT30;51893;59.754;10.110;2024-02-21T12:30:36;3.28;83.27
65291;SHT30;51893;59.754;10.110;2024-02-21T12:33:09;3.28;83.21
65291;SHT30;51893;59.754;10.110;2024-02-21T12:35:37;3.41;83.41
65291;SHT30;51893;59.754;10.110;2024-02-21T12:38:05;3.52;83.26
65291;SHT30;51893;59.754;10.110;2024-02-21T12:40:34;3.60;83.20
65291;SHT30;51893;59.754;10.110;2024-02-21T12:43:03;3.64;83.05
65291;SHT30;51893;59.754;10.110;2024-02-21T12:45:32;3.65;83.00
65291;SHT30;51893;59.754;10.110;2024-02-21T12:48:01;3.59;82.95
65291;SHT30;51893;59.754;10.110;2024-02-21T12:50:29;3.52;82.94
65291;SHT30;51893;59.754;10.110;2024-02-21T12:53:00;3.35;83.06
65291;SHT30;51893;59.754;10.110;2024-02-21T12:55:30;3.26;83.36
65291;SHT30;51893;59.754;10.110;2024-02-21T12:58:02;3.22;83.53
65291;SHT30;51893;59.754;10.110;2024-02-21T13:00:33;3.22;83.64
65291;SHT30;51893;59.754;10.110;2024-02-21T13:03:03;3.25;83.65
65291;SHT30;51893;59.754;10.110;2024-02-21T13:05:31;3.26;83.73
65291;SHT30;51893;59.754;10.110;2024-02-21T13:07:59;3.28;83.76
65291;SHT30;51893;59.754;10.110;2024-02-21T13:10:28;3.31;83.73
65291;SHT30;51893;59.754;10.110;2024-02-21T13:12:56;3.39;83.67
65291;SHT30;51893;59.754;10.110;2024-02-21T13:15:25;3.41;83.55
65291;SHT30;51893;59.754;10.110;2024-02-21T13:17:56;3.39;83.47
65291;SHT30;51893;59.754;10.110;2024-02-21T13:20:27;3.34;83.42
65291;SHT30;51893;59.754;10.110;2024-02-21T13:22:56;3.31;83.53
65291;SHT30;51893;59.754;10.110;2024-02-21T13:25:24;3.33;83.62
65291;SHT30;51893;59.754;10.110;2024-02-21T13:27:55;3.33;83.62
65291;SHT30;51893;59.754;10.110;2024-02-21T13:30:23;3.31;83.62
65291;SHT30;51893;59.754;10.110;2024-02-21T13:32:53;3.31;83.72
65291;SHT30;51893;59.754;10.110;2024-02-21T13:35:22;3.35;83.79
65291;SHT30;51893;59.754;10.110;2024-02-21T13:37:50;3.33;83.74
65291;SHT30;51893;59.754;10.110;2024-02-21T13:40:19;3.34;83.78
65291;SHT30;51893;59.754;10.110;2024-02-21T13:42:47;3.37;83.73
65291;SHT30;51893;59.754;10.110;2024-02-21T13:45:17;3.44;83.74
65291;SHT30;51893;59.754;10.110;2024-02-21T13:47:45;3.45;83.60
65291;SHT30;51893;59.754;10.110;2024-02-21T13:50:13;3.45;83.63
65291;SHT30;51893;59.754;10.110;2024-02-21T13:52:42;3.40;83.57
65291;SHT30;51893;59.754;10.110;2024-02-21T13:55:11;3.37;83.68
65291;SHT30;51893;59.754;10.110;2024-02-21T13:57:38;3.41;83.80
65291;SHT30;51893;59.754;10.110;2024-02-21T14:00:07;3.42;83.75
65291;SHT30;51893;59.754;10.110;2024-02-21T14:02:39;3.43;83.84
65291;SHT30;51893;59.754;10.110;2024-02-21T14:05:07;3.42;83.83
65291;SHT30;51893;59.754;10.110;2024-02-21T14:07:37;3.35;83.99
65291;SHT30;51893;59.754;10.110;2024-02-21T14:10:06;3.33;84.07
65291;SHT30;51893;59.754;10.110;2024-02-21T14:12:37;3.32;84.16
65291;SHT30;51893;59.754;10.110;2024-02-21T14:15:06;3.29;84.17
65291;SHT30;51893;59.754;10.110;2024-02-21T14:17:34;3.21;84.27
65291;SHT30;51893;59.754;10.110;2024-02-21T14:20:02;3.11;84.41
65291;SHT30;51893;59.754;10.110;2024-02-21T14:22:32;3.03;84.61
65291;SHT30;51893;59.754;10.110;2024-02-21T14:25:02;2.98;84.69
65291;SHT30;51893;59.754;10.110;2024-02-21T14:27:34;2.97;84.74
65291;SHT30;51893;59.754;10.110;2024-02-21T14:30:04;2.95;84.75
65291;SHT30;51893;59.754;10.110;2024-02-21T14:32:33;2.92;84.78
65291;SHT30;51893;59.754;10.110;2024-02-21T14:35:01;2.91;84.89
65291;SHT30;51893;59.754;10.110;2024-02-21T14:37:33;2.86;84.88
65291;SHT30;51893;59.754;10.110;2024-02-21T14:40:02;2.78;84.94
65291;SHT30;51893;59.754;10.110;2024-02-21T14:42:32;2.72;85.08
65291;SHT30;51893;59.754;10.110;2024-02-21T14:45:00;2.67;85.21
65291;SHT30;51893;59.754;10.110;2024-02-21T14:47:34;2.60;85.33
65291;SHT30;51893;59.754;10.110;2024-02-21T14:50:03;2.55;85.44
65291;SHT30;51893;59.754;10.110;2024-02-21T14:52:36;2.47;85.53
65291;SHT30;51893;59.754;10.110;2024-02-21T14:55:05;2.43;85.67
65291;SHT30;51893;59.754;10.110;2024-02-21T14:57:33;2.42;85.73
65291;SHT30;51893;59.754;10.110;2024-02-21T15:00:01;2.40;85.80
65291;SHT30;51893;59.754;10.110;2024-02-21T15:02:30;2.38;85.80
65291;SHT30;51893;59.754;10.110;2024-02-21T15:04:58;2.36;85.83
65291;SHT30;51893;59.754;10.110;2024-02-21T15:07:26;2.35;85.90
65291;SHT30;51893;59.754;10.110;2024-02-21T15:09:55;2.32;85.99
65291;SHT30;51893;59.754;10.110;2024-02-21T15:12:25;2.31;86.02
65291;SHT30;51893;59.754;10.110;2024-02-21T15:14:53;2.28;86.11
65291;SHT30;51893;59.754;10.110;2024-02-21T15:17:21;2.30;86.18
65291;SHT30;51893;59.754;10.110;2024-02-21T15:19:49;2.33;86.18
65291;SHT30;51893;59.754;10.110;2024-02-21T15:22:18;2.35;86.13
65291;SHT30;51893;59.754;10.110;2024-02-21T15:24:47;2.28;86.17
65291;SHT30;51893;59.754;10.110;2024-02-21T15:27:16;2.25;86.31
65291;SHT30;51893;59.754;10.110;2024-02-21T15:29:44;2.18;86.42
65291;SHT30;51893;59.754;10.110;2024-02-21T15:32:12;2.16;86.58
65291;SHT30;51893;59.754;10.110;2024-02-21T15:34:40;2.19;86.64
65291;SHT30;51893;59.754;10.110;2024-02-21T15:37:09;2.20;86.59
65291;SHT30;51893;59.754;10.110;2024-02-21T15:39:39;2.18;86.60
65291;SHT30;51893;59.754;10.110;2024-02-21T15:42:07;2.19;86.67